Knoxville, Tennessee
Current Conditions -  °F | °C
As of 5:53 AM on Friday 24 Oct 2014 (Local Time) from KTYS Reporting Station
Broken Clouds Broken Clouds  
Wind Chill:   Ceiling: 25000
Heat Index:   Visibility: 10mi
Dew Point:   Wind: 7mph
Humidity: 90%   Direction: 60°ENE
Pressure: 30.09"   Gusts: NA
Location:  35.96°N, 83.92°W
Report Text: KTYS 240953Z 06006KT 10SM BKN250 07/06 A3009 RMK AO2 SLP187 T00720056
Loading
Personal Weather Stations






























Interactive Weather Map New forecast layout! Learn more

10-Day Weather Forecast

Advertisements
Track Severe Weather on mobile